Time;durP1;ratioP1;P1;durP2;ratioP2;P2;SDS_P1;SDS_P2;PMS_P1;PMS_P2;Temp;Humidity;BMP_temperature;BMP_pressure;BME280_temperature;BME280_humidity;BME280_pressure;Samples;Min_cycle;Max_cycle;Signal;HPM_P1;HPM_P2
2021/04/05 00:01:02;;;;;;;42.90;19.67;;;;;;;;;;5071314;28;20016;-79
2021/04/05 00:03:28;;;;;;;50.23;21.67;;;;;;;;;;5071124;28;20032;-79
2021/04/05 00:05:53;;;;;;;44.83;18.87;;;;;;;;;;5071036;28;20383;-79
2021/04/05 00:08:18;;;;;;;43.23;19.57;;;;;;;;;;5072646;28;20123;-79
2021/04/05 00:10:47;;;;;;;43.90;19.40;;;;;;;;;;5071290;28;20048;-79
2021/04/05 00:13:15;;;;;;;50.47;19.93;;;;;;;;;;5071189;28;20024;-79
2021/04/05 00:15:41;;;;;;;51.33;18.80;;;;;;;;;;5070563;28;20021;-79
2021/04/05 00:18:06;;;;;;;44.03;19.57;;;;;;;;;;5072449;28;20024;-79
2021/04/05 00:20:35;;;;;;;40.93;19.37;;;;;;;;;;5071787;28;20017;-78
2021/04/05 00:23:01;;;;;;;45.03;18.03;;;;;;;;;;5071094;28;20025;-79
2021/04/05 00:25:26;;;;;;;35.97;17.83;;;;;;;;;;5071033;28;20111;-78
2021/04/05 00:27:51;;;;;;;41.70;19.10;;;;;;;;;;5071069;28;20472;-78
2021/04/05 00:30:19;;;;;;;46.80;19.87;;;;;;;;;;5071881;28;20059;-79
2021/04/05 00:32:45;;;;;;;46.23;19.13;;;;;;;;;;5070619;28;20115;-79
2021/04/05 00:35:11;;;;;;;41.33;19.17;;;;;;;;;;5070982;28;20032;-79
2021/04/05 00:37:36;;;;;;;42.70;19.07;;;;;;;;;;5070457;28;20033;-79
2021/04/05 00:40:04;;;;;;;50.83;19.83;;;;;;;;;;5072317;28;20104;-79
2021/04/05 00:42:29;;;;;;;44.17;18.53;;;;;;;;;;5071941;28;20020;-78
2021/04/05 00:44:55;;;;;;;51.30;19.47;;;;;;;;;;5070766;28;20376;-78
2021/04/05 00:47:20;;;;;;;45.83;20.40;;;;;;;;;;5070553;28;20074;-79
2021/04/05 00:49:45;;;;;;;38.57;18.47;;;;;;;;;;5071784;28;20019;-79
2021/04/05 00:52:10;;;;;;;46.10;18.50;;;;;;;;;;5072223;28;20141;-79
2021/04/05 00:54:36;;;;;;;44.30;17.20;;;;;;;;;;5071955;28;20361;-79
2021/04/05 00:57:01;;;;;;;42.37;16.87;;;;;;;;;;5070607;28;20016;-78
2021/04/05 00:59:26;;;;;;;41.80;17.10;;;;;;;;;;5070483;28;20020;-79
2021/04/05 01:01:51;;;;;;;36.53;16.57;;;;;;;;;;5070590;28;20012;-79
2021/04/05 01:04:17;;;;;;;39.23;14.73;;;;;;;;;;5073033;28;20016;-79
2021/04/05 01:06:42;;;;;;;36.63;15.43;;;;;;;;;;5075501;28;20027;-78
2021/04/05 01:09:07;;;;;;;34.13;15.80;;;;;;;;;;5074253;28;20118;-79
2021/04/05 01:11:33;;;;;;;41.93;15.67;;;;;;;;;;5075444;28;20467;-78
2021/04/05 01:13:58;;;;;;;35.50;15.50;;;;;;;;;;5074058;28;20475;-79
2021/04/05 01:16:25;;;;;;;36.30;15.17;;;;;;;;;;5075273;28;20032;-79
2021/04/05 01:18:50;;;;;;;37.07;14.90;;;;;;;;;;5075511;28;20029;-78
2021/04/05 01:21:15;;;;;;;32.60;15.23;;;;;;;;;;5074058;28;20066;-78
2021/04/05 01:23:41;;;;;;;37.43;15.40;;;;;;;;;;5075445;28;20013;-79
2021/04/05 01:26:06;;;;;;;39.77;13.50;;;;;;;;;;5074727;28;20055;-78
2021/04/05 01:28:31;;;;;;;45.77;15.13;;;;;;;;;;5073621;28;20026;-79
2021/04/05 01:30:58;;;;;;;39.27;13.87;;;;;;;;;;5066671;28;20013;-78
2021/04/05 01:33:25;;;;;;;42.27;13.63;;;;;;;;;;5073668;28;20058;-79
2021/04/05 01:35:52;;;;;;;35.20;14.30;;;;;;;;;;5073702;28;20471;-79
2021/04/05 01:38:19;;;;;;;33.73;12.43;;;;;;;;;;5073481;28;20103;-79
2021/04/05 01:40:46;;;;;;;32.73;11.40;;;;;;;;;;5074865;28;20061;-79
2021/04/05 01:43:11;;;;;;;31.60;11.53;;;;;;;;;;5073736;28;20380;-79
2021/04/05 01:45:36;;;;;;;50.83;15.30;;;;;;;;;;5074490;28;20013;-79
2021/04/05 01:48:02;;;;;;;33.70;11.80;;;;;;;;;;5074326;28;20029;-79
2021/04/05 01:50:28;;;;;;;33.90;14.10;;;;;;;;;;5073439;28;20035;-78
2021/04/05 01:52:53;;;;;;;32.93;12.57;;;;;;;;;;5073382;28;20107;-79
2021/04/05 01:55:19;;;;;;;38.73;13.73;;;;;;;;;;5073544;28;20464;-79
2021/04/05 01:57:44;;;;;;;42.93;13.47;;;;;;;;;;5073257;28;20487;-79
2021/04/05 02:00:12;;;;;;;44.03;13.50;;;;;;;;;;5074808;28;20027;-79
2021/04/05 02:02:37;;;;;;;38.27;12.23;;;;;;;;;;5073075;28;20043;-79
2021/04/05 02:05:04;;;;;;;27.57;11.50;;;;;;;;;;5073025;28;20523;-79
2021/04/05 02:07:29;;;;;;;43.97;13.97;;;;;;;;;;5073064;28;20480;-79
2021/04/05 02:09:54;;;;;;;32.30;12.97;;;;;;;;;;5074085;28;20053;-79
2021/04/05 02:12:20;;;;;;;35.67;14.20;;;;;;;;;;5072656;28;20033;-79
2021/04/05 02:14:45;;;;;;;39.83;12.73;;;;;;;;;;5072023;28;20081;-79
2021/04/05 02:17:10;;;;;;;34.10;13.80;;;;;;;;;;5074162;28;20111;-79
2021/04/05 02:19:35;;;;;;;41.73;13.40;;;;;;;;;;5072937;28;20039;-79
2021/04/05 02:22:01;;;;;;;33.13;11.47;;;;;;;;;;5072576;28;20059;-79
2021/04/05 02:24:26;;;;;;;44.77;15.20;;;;;;;;;;5072966;28;20439;-79
2021/04/05 02:26:51;;;;;;;34.13;12.40;;;;;;;;;;5074037;28;20467;-78
2021/04/05 02:29:17;;;;;;;36.23;12.50;;;;;;;;;;5072575;28;20111;-79
2021/04/05 02:31:43;;;;;;;31.13;10.90;;;;;;;;;;5073836;28;20026;-78
2021/04/05 02:34:11;;;;;;;40.13;16.13;;;;;;;;;;5072328;28;20021;-79
2021/04/05 02:36:39;;;;;;;40.57;13.60;;;;;;;;;;5073657;28;20024;-79
2021/04/05 02:39:06;;;;;;;37.80;12.40;;;;;;;;;;5072285;28;20525;-79
2021/04/05 02:41:31;;;;;;;33.97;12.37;;;;;;;;;;5072397;28;20020;-78
2021/04/05 02:43:57;;;;;;;38.97;14.50;;;;;;;;;;5073656;28;20016;-79
2021/04/05 02:46:24;;;;;;;38.73;14.13;;;;;;;;;;5072193;28;20021;-78
2021/04/05 02:48:50;;;;;;;48.90;14.43;;;;;;;;;;5073784;28;20024;-78
2021/04/05 02:51:15;;;;;;;46.63;13.20;;;;;;;;;;5072233;28;20112;-78
2021/04/05 02:53:42;;;;;;;39.43;13.57;;;;;;;;;;5072363;28;20027;-78
2021/04/05 02:56:07;;;;;;;46.17;14.37;;;;;;;;;;5073289;28;20073;-78
2021/04/05 02:58:34;;;;;;;36.70;12.70;;;;;;;;;;5071774;28;20050;-78
2021/04/05 03:00:59;;;;;;;49.17;13.40;;;;;;;;;;5071742;28;20017;-78
2021/04/05 03:03:24;;;;;;;38.67;14.97;;;;;;;;;;5072131;28;20032;-79
2021/04/05 03:05:50;;;;;;;47.07;13.53;;;;;;;;;;5073202;28;20089;-79
2021/04/05 03:08:17;;;;;;;33.87;12.07;;;;;;;;;;5071846;28;20016;-79
2021/04/05 03:10:42;;;;;;;39.17;14.13;;;;;;;;;;5071596;28;20020;-79
2021/04/05 03:13:08;;;;;;;38.13;13.00;;;;;;;;;;5071690;28;20380;-78
2021/04/05 03:15:33;;;;;;;45.23;15.17;;;;;;;;;;5071957;28;20027;-78
2021/04/05 03:18:00;;;;;;;46.20;16.30;;;;;;;;;;5072701;28;20017;-78
2021/04/05 03:20:35;;;;;;;38.67;13.67;;;;;;;;;;5071833;28;20403;-79
2021/04/05 03:23:01;;;;;;;45.57;15.87;;;;;;;;;;5072769;28;20029;-79
2021/04/05 03:25:27;;;;;;;44.00;14.63;;;;;;;;;;5071640;28;20023;-79
2021/04/05 03:27:52;;;;;;;36.87;13.47;;;;;;;;;;5072318;28;20472;-78
2021/04/05 03:30:31;;;;;;;35.47;14.73;;;;;;;;;;5072852;28;20467;-79
2021/04/05 03:33:04;;;;;;;37.70;12.73;;;;;;;;;;5105165;28;20476;-78
2021/04/05 03:35:30;;;;;;;44.63;16.00;;;;;;;;;;5071109;28;20039;-78
2021/04/05 03:37:56;;;;;;;48.50;15.27;;;;;;;;;;5072700;28;20118;-78
2021/04/05 03:40:23;;;;;;;48.93;16.67;;;;;;;;;;5071530;28;20029;-78
2021/04/05 03:42:55;;;;;;;46.30;16.57;;;;;;;;;;5071454;28;20016;-78
2021/04/05 03:45:24;;;;;;;44.58;16.13;;;;;;;;;;5071363;28;20490;-79
2021/04/05 03:47:50;;;;;;;44.00;17.30;;;;;;;;;;5072357;28;20021;-79
2021/04/05 03:50:25;;;;;;;40.03;15.83;;;;;;;;;;5071443;28;20545;-78
2021/04/05 03:53:09;;;;;;;48.93;17.97;;;;;;;;;;5071261;28;20021;-78
2021/04/05 03:55:38;;;;;;;45.80;17.40;;;;;;;;;;5071280;28;20025;-78
2021/04/05 03:58:04;;;;;;;41.23;15.73;;;;;;;;;;5070466;28;20024;-78
2021/04/05 04:00:30;;;;;;;45.00;17.67;;;;;;;;;;5072663;28;20024;-79
2021/04/05 04:02:58;;;;;;;41.10;17.27;;;;;;;;;;5071217;28;20016;-79
2021/04/05 04:05:39;;;;;;;52.50;20.57;;;;;;;;;;5072484;28;20097;-79
2021/04/05 04:08:21;;;;;;;50.33;19.93;;;;;;;;;;5072512;28;20020;-78
2021/04/05 04:10:49;;;;;;;51.85;20.25;;;;;;;;;;5072494;28;20017;-78
2021/04/05 04:13:15;;;;;;;50.77;19.10;;;;;;;;;;5070966;28;20459;-79
2021/04/05 04:15:41;;;;;;;55.70;19.50;;;;;;;;;;5071092;28;20115;-78
2021/04/05 04:18:06;;;;;;;48.37;19.47;;;;;;;;;;5072285;28;20383;-79
2021/04/05 04:20:32;;;;;;;52.77;20.67;;;;;;;;;;5070635;28;20045;-78
2021/04/05 04:22:58;;;;;;;59.20;20.50;;;;;;;;;;5072330;28;20017;-78
2021/04/05 04:25:23;;;;;;;51.27;19.37;;;;;;;;;;5071193;28;20009;-78
2021/04/05 04:27:49;;;;;;;58.20;22.63;;;;;;;;;;5071154;28;20433;-78
2021/04/05 04:30:31;;;;;;;50.83;22.27;;;;;;;;;;5072309;28;20031;-79
2021/04/05 04:32:57;;;;;;;55.28;21.70;;;;;;;;;;5071167;28;20025;-79
2021/04/05 04:35:22;;;;;;;56.97;24.57;;;;;;;;;;5071958;28;20028;-79
2021/04/05 04:37:48;;;;;;;55.13;20.57;;;;;;;;;;5070999;28;20467;-79
2021/04/05 04:40:13;;;;;;;52.83;21.00;;;;;;;;;;5074786;28;20020;-78
2021/04/05 04:42:38;;;;;;;64.73;26.43;;;;;;;;;;5074710;28;20529;-78
2021/04/05 04:45:03;;;;;;;58.77;23.73;;;;;;;;;;5076007;28;20024;-78
2021/04/05 04:47:29;;;;;;;45.97;19.23;;;;;;;;;;5075823;28;20024;-79
2021/04/05 04:49:54;;;;;;;50.77;20.77;;;;;;;;;;5074463;28;20020;-79
2021/04/05 04:52:20;;;;;;;57.93;20.87;;;;;;;;;;5075830;28;20061;-78
2021/04/05 04:54:45;;;;;;;49.77;21.17;;;;;;;;;;5074270;28;20456;-79
2021/04/05 04:57:10;;;;;;;59.57;26.27;;;;;;;;;;5074432;28;20498;-78
2021/04/05 04:59:36;;;;;;;59.80;22.53;;;;;;;;;;5074355;28;20473;-79
2021/04/05 05:02:01;;;;;;;68.40;25.13;;;;;;;;;;5075377;28;20017;-78
2021/04/05 05:04:27;;;;;;;57.83;22.03;;;;;;;;;;5073962;28;20024;-78
2021/04/05 05:06:53;;;;;;;52.73;21.03;;;;;;;;;;5075590;28;20074;-79
2021/04/05 05:09:19;;;;;;;51.00;21.40;;;;;;;;;;5074138;28;20094;-79
2021/04/05 05:11:45;;;;;;;47.20;20.70;;;;;;;;;;5074147;28;20025;-79
2021/04/05 05:14:11;;;;;;;60.17;21.57;;;;;;;;;;5074098;28;20040;-79
2021/04/05 05:16:37;;;;;;;57.43;22.37;;;;;;;;;;5073833;28;20013;-78
2021/04/05 05:19:02;;;;;;;47.73;22.97;;;;;;;;;;5075106;28;20023;-78
2021/04/05 05:21:36;;;;;;;62.87;24.40;;;;;;;;;;5073901;28;20384;-79
2021/04/05 05:24:02;;;;;;;59.70;21.73;;;;;;;;;;5073871;28;20021;-79
2021/04/05 05:26:28;;;;;;;50.33;20.93;;;;;;;;;;5073761;28;20025;-78
2021/04/05 05:28:55;;;;;;;62.40;22.93;;;;;;;;;;5073829;28;20021;-78
2021/04/05 05:31:21;;;;;;;52.37;21.10;;;;;;;;;;5073567;28;20020;-79
2021/04/05 05:33:46;;;;;;;56.30;23.03;;;;;;;;;;5075010;28;20009;-79
2021/04/05 05:36:12;;;;;;;59.33;23.07;;;;;;;;;;5073832;28;20157;-78
2021/04/05 05:38:37;;;;;;;53.77;20.93;;;;;;;;;;5073394;28;20013;-78
2021/04/05 05:41:09;;;;;;;55.20;19.63;;;;;;;;;;5074932;28;20016;-78
2021/04/05 05:43:47;;;;;;;53.13;22.05;;;;;;;;;;5074767;28;20024;-79
2021/04/05 05:46:15;;;;;;;41.77;18.10;;;;;;;;;;5074751;28;20099;-79
2021/04/05 05:48:52;;;;;;;57.63;23.20;;;;;;;;;;5073208;28;20070;-79
2021/04/05 05:51:21;;;;;;;53.27;18.47;;;;;;;;;;5073253;28;20024;-78
2021/04/05 05:54:06;;;;;;;55.73;18.90;;;;;;;;;;5073499;28;20067;-78
2021/04/05 05:56:39;;;;;;;53.03;20.73;;;;;;;;;;5073488;28;20074;-79
2021/04/05 05:59:04;;;;;;;55.42;22.80;;;;;;;;;;5073280;28;20062;-78
2021/04/05 06:01:40;;;;;;;55.27;22.40;;;;;;;;;;5073145;28;20046;-79
2021/04/05 06:04:24;;;;;;;54.03;19.90;;;;;;;;;;5073516;28;20021;-78
2021/04/05 06:06:57;;;;;;;63.70;20.43;;;;;;;;;;5074414;28;20440;-78
2021/04/05 06:09:34;;;;;;;52.05;17.52;;;;;;;;;;5073162;28;20384;-78
2021/04/05 06:12:05;;;;;;;48.37;20.07;;;;;;;;;;5071733;28;20028;-78
2021/04/05 06:14:49;;;;;;;46.67;20.70;;;;;;;;;;5071904;28;20067;-79
2021/04/05 06:17:19;;;;;;;59.43;20.50;;;;;;;;;;5072541;28;20028;-78
2021/04/05 06:19:49;;;;;;;61.67;22.90;;;;;;;;;;5072883;28;20120;-79
2021/04/05 06:22:26;;;;;;;52.27;20.57;;;;;;;;;;5074214;28;20024;-78
2021/04/05 06:25:06;;;;;;;49.50;21.13;;;;;;;;;;5072052;28;20027;-80
2021/04/05 06:27:52;;;;;;;47.90;19.20;;;;;;;;;;5071101;28;20029;-79
2021/04/05 06:30:25;;;;;;;56.10;19.67;;;;;;;;;;5070276;28;20043;-78
2021/04/05 06:33:07;;;;;;;54.80;19.90;;;;;;;;;;5073166;28;20025;-78
2021/04/05 06:35:51;;;;;;;51.42;20.85;;;;;;;;;;5073076;28;20112;-78
2021/04/05 06:38:21;;;;;;;54.97;18.67;;;;;;;;;;5073345;28;20029;-78
2021/04/05 06:40:47;;;;;;;51.03;20.87;;;;;;;;;;5068078;28;20036;-79
2021/04/05 06:43:31;;;;;;;50.20;20.63;;;;;;;;;;5074011;28;20464;-78
2021/04/05 06:45:56;;;;;;;49.93;19.90;;;;;;;;;;5071702;28;20111;-79
2021/04/05 06:48:51;;;;;;;46.03;19.83;;;;;;;;;;5073846;28;20476;-78
2021/04/05 06:51:35;;;;;;;57.07;20.03;;;;;;;;;;5071663;28;20057;-79
2021/04/05 06:54:17;;;;;;;44.77;19.20;;;;;;;;;;5070843;28;20051;-78
2021/04/05 06:56:51;;;;;;;41.58;17.42;;;;;;;;;;5060459;28;20051;-78
2021/04/05 06:59:22;;;;;;;42.10;15.37;;;;;;;;;;5073317;28;20460;-78
2021/04/05 07:02:06;;;;;;;43.13;17.43;;;;;;;;;;5071107;28;20016;-78
2021/04/05 07:04:50;;;;;;;50.10;18.60;;;;;;;;;;5071848;28;20019;-78
2021/04/05 07:07:19;;;;;;;55.00;19.43;;;;;;;;;;5065846;28;20024;-78
2021/04/05 07:09:47;;;;;;;50.67;19.23;;;;;;;;;;5071740;28;20020;-78
2021/04/05 07:12:27;;;;;;;45.63;16.37;;;;;;;;;;5071108;28;20025;-78
2021/04/05 07:15:10;;;;;;;36.87;15.13;;;;;;;;;;5073370;28;20455;-78
2021/04/05 07:17:45;;;;;;;39.97;14.67;;;;;;;;;;5072059;28;20052;-79
2021/04/05 07:20:17;;;;;;;43.10;16.70;;;;;;;;;;5071418;28;20380;-79
2021/04/05 07:22:51;;;;;;;40.08;17.25;;;;;;;;;;5067543;28;20017;-79
2021/04/05 07:25:35;;;;;;;29.43;14.10;;;;;;;;;;5070267;28;20017;-79
2021/04/05 07:28:20;;;;;;;23.70;9.50;;;;;;;;;;5073236;28;20012;-79
2021/04/05 07:30:45;;;;;;;17.23;5.50;;;;;;;;;;5071729;28;20073;-78
2021/04/05 07:33:19;;;;;;;13.97;4.30;;;;;;;;;;5072963;28;20107;-79
2021/04/05 07:35:47;;;;;;;20.03;4.03;;;;;;;;;;5073012;28;20023;-79
2021/04/05 07:38:20;;;;;;;18.10;3.40;;;;;;;;;;5072905;28;20028;-78
2021/04/05 07:40:51;;;;;;;11.93;2.90;;;;;;;;;;5072696;28;20020;-79
2021/04/05 07:43:29;;;;;;;9.33;2.73;;;;;;;;;;5071675;28;20404;-79
2021/04/05 07:46:03;;;;;;;21.07;3.13;;;;;;;;;;5071399;28;20147;-79
2021/04/05 07:48:33;;;;;;;15.83;2.67;;;;;;;;;;5071246;28;20028;-78
2021/04/05 07:50:58;;;;;;;20.63;2.37;;;;;;;;;;5071255;28;20017;-78
2021/04/05 07:53:29;;;;;;;13.30;2.50;;;;;;;;;;5071484;28;20032;-78
2021/04/05 07:55:58;;;;;;;16.13;2.40;;;;;;;;;;5071481;28;20025;-78
2021/04/05 07:58:48;;;;;;;10.37;2.20;;;;;;;;;;5071359;28;20013;-79
2021/04/05 08:01:25;;;;;;;13.40;2.10;;;;;;;;;;5071310;28;20431;-78
2021/04/05 08:03:55;;;;;;;11.90;2.40;;;;;;;;;;5071214;28;20016;-78
2021/04/05 08:06:25;;;;;;;11.90;2.63;;;;;;;;;;5072561;28;20108;-78
2021/04/05 08:08:58;;;;;;;13.77;2.30;;;;;;;;;;5071181;28;20012;-78
2021/04/05 08:11:46;;;;;;;13.37;2.50;;;;;;;;;;5071202;28;20020;-78
2021/04/05 08:14:19;;;;;;;13.93;2.80;;;;;;;;;;5075008;28;20105;-78
2021/04/05 08:16:44;;;;;;;;;;;;;;;;;;5075596;28;20086;-78
2021/04/05 08:19:28;;;;;;;6.40;2.73;;;;;;;;;;5075347;28;19904;-79
2021/04/05 08:21:53;;;;;;;16.80;3.67;;;;;;;;;;5076620;28;20556;-78
2021/04/05 08:24:26;;;;;;;3.82;1.76;;;;;;;;;;5075252;28;20078;-78
2021/04/05 08:27:02;;;;;;;11.97;3.00;;;;;;;;;;5075083;28;20023;-79
2021/04/05 08:29:27;;;;;;;4.87;1.80;;;;;;;;;;5076779;28;20456;-79
2021/04/05 08:32:01;;;;;;;5.20;1.66;;;;;;;;;;5074992;28;20024;-79
2021/04/05 08:34:50;;;;;;;5.33;1.30;;;;;;;;;;5076401;28;20031;-78
2021/04/05 08:37:34;;;;;;;7.73;1.37;;;;;;;;;;5075095;28;20017;-78
2021/04/05 08:40:05;;;;;;;6.07;1.07;;;;;;;;;;5076077;28;20020;-78
2021/04/05 08:42:31;;;;;;;10.70;1.20;;;;;;;;;;5074405;28;20095;-79
2021/04/05 08:45:06;;;;;;;10.77;1.57;;;;;;;;;;5074788;28;20040;-79
2021/04/05 08:47:31;;;;;;;15.90;1.60;;;;;;;;;;5075918;28;20111;-78
2021/04/05 08:50:00;;;;;;;10.80;1.70;;;;;;;;;;5076078;28;20091;-78
2021/04/05 08:52:26;;;;;;;8.80;1.77;;;;;;;;;;5074538;28;20421;-78
2021/04/05 08:54:53;;;;;;;8.27;1.40;;;;;;;;;;5076014;28;20490;-79
2021/04/05 08:57:27;;;;;;;12.90;1.50;;;;;;;;;;5075706;28;20067;-78
2021/04/05 09:00:05;;;;;;;14.17;1.67;;;;;;;;;;5071930;28;20020;-78
2021/04/05 09:02:30;;;;;;;13.03;2.17;;;;;;;;;;5074079;28;20008;-79
2021/04/05 09:04:56;;;;;;;11.33;2.00;;;;;;;;;;5075328;28;20428;-79
2021/04/05 09:07:40;;;;;;;14.57;2.03;;;;;;;;;;5075155;28;20031;-78
2021/04/05 09:10:06;;;;;;;16.67;2.17;;;;;;;;;;5073746;28;20025;-78
2021/04/05 09:12:33;;;;;;;23.20;3.13;;;;;;;;;;5074082;28;20024;-79
2021/04/05 09:15:17;;;;;;;15.63;2.53;;;;;;;;;;5075499;28;20361;-78
2021/04/05 09:17:52;;;;;;;17.57;2.10;;;;;;;;;;5074127;28;20016;-79
2021/04/05 09:20:35;;;;;;;15.70;2.03;;;;;;;;;;5075331;28;20047;-79
2021/04/05 09:23:15;;;;;;;16.67;1.90;;;;;;;;;;5074245;28;20016;-79
2021/04/05 09:26:10;;;;;;;15.87;1.87;;;;;;;;;;5072338;28;20040;-78
2021/04/05 09:28:35;;;;;;;14.97;2.77;;;;;;;;;;5067863;28;20062;-79
2021/04/05 09:31:26;;;;;;;15.17;2.47;;;;;;;;;;5073778;28;20498;-79
2021/04/05 09:34:10;;;;;;;23.67;2.70;;;;;;;;;;5071441;28;20050;-78
2021/04/05 09:36:47;;;;;;;16.33;2.67;;;;;;;;;;5071540;28;20491;-79
2021/04/05 09:39:15;;;;;;;17.87;2.30;;;;;;;;;;5074653;28;20012;-78
2021/04/05 09:41:59;;;;;;;18.37;1.77;;;;;;;;;;5073164;28;20107;-78
2021/04/05 09:44:43;;;;;;;19.33;3.47;;;;;;;;;;5073238;28;20016;-78
2021/04/05 09:47:37;;;;;;;16.83;2.30;;;;;;;;;;5071204;28;20070;-79
2021/04/05 09:50:20;;;;;;;13.00;1.70;;;;;;;;;;5064391;28;20041;-78
2021/04/05 09:52:55;;;;;;;15.13;2.50;;;;;;;;;;5068902;28;20025;-79
2021/04/05 09:55:46;;;;;;;13.87;1.87;;;;;;;;;;5062626;28;20029;-78
2021/04/05 09:58:12;;;;;;;7.67;1.50;;;;;;;;;;5059343;28;20037;-79
2021/04/05 10:00:37;;;;;;;11.74;1.66;;;;;;;;;;5064815;28;20021;-78
2021/04/05 10:03:07;;;;;;;9.57;1.47;;;;;;;;;;5070988;28;20021;-79
2021/04/05 10:05:32;;;;;;;13.77;1.20;;;;;;;;;;5061982;28;20017;-79
2021/04/05 10:07:58;;;;;;;10.57;1.63;;;;;;;;;;5069468;28;20028;-78
2021/04/05 10:10:27;;;;;;;9.17;1.60;;;;;;;;;;5062243;28;20096;-79
2021/04/05 10:12:53;;;;;;;10.63;1.80;;;;;;;;;;5065749;28;20496;-79
2021/04/05 10:15:21;;;;;;;12.60;2.30;;;;;;;;;;5062479;28;20017;-78
2021/04/05 10:17:53;;;;;;;12.27;2.30;;;;;;;;;;5063101;28;20443;-78
2021/04/05 10:20:18;;;;;;;;;;;;;;;;;;5064116;28;20091;-79
2021/04/05 10:22:45;;;;;;;14.17;2.20;;;;;;;;;;5061069;28;20030;-79
2021/04/05 10:25:12;;;;;;;16.07;2.10;;;;;;;;;;5063705;28;20253;-78
2021/04/05 10:27:38;;;;;;;19.37;2.40;;;;;;;;;;5061262;28;20076;-79
2021/04/05 10:30:04;;;;;;;12.50;2.00;;;;;;;;;;5060611;28;20055;-79
2021/04/05 10:32:29;;;;;;;10.40;1.93;;;;;;;;;;5069494;28;20028;-79
2021/04/05 10:34:56;;;;;;;9.13;1.33;;;;;;;;;;5063775;28;20032;-79
2021/04/05 10:37:24;;;;;;;10.60;1.27;;;;;;;;;;5070207;28;20028;-79
2021/04/05 10:39:51;;;;;;;10.60;2.07;;;;;;;;;;5065707;28;20023;-79
2021/04/05 10:42:22;;;;;;;20.77;2.20;;;;;;;;;;5070789;28;20021;-78
2021/04/05 10:44:48;;;;;;;8.80;1.30;;;;;;;;;;5061710;28;20008;-79
2021/04/05 10:47:17;;;;;;;13.20;1.83;;;;;;;;;;5073392;28;20070;-79
2021/04/05 10:49:44;;;;;;;8.10;1.40;;;;;;;;;;5073489;28;20048;-79
2021/04/05 10:52:14;;;;;;;10.47;1.37;;;;;;;;;;5069812;28;20460;-79
2021/04/05 10:54:40;;;;;;;6.53;0.63;;;;;;;;;;5068155;28;20029;-79
2021/04/05 10:57:08;;;;;;;9.27;1.33;;;;;;;;;;5068753;28;20028;-79
2021/04/05 10:59:37;;;;;;;10.87;1.80;;;;;;;;;;5071865;28;20095;-80
2021/04/05 11:02:14;;;;;;;15.27;1.53;;;;;;;;;;5070197;28;20368;-79
2021/04/05 11:04:40;;;;;;;10.73;1.00;;;;;;;;;;5071605;28;20043;-79
2021/04/05 11:07:07;;;;;;;4.73;1.17;;;;;;;;;;5071941;28;20020;-79
2021/04/05 11:09:37;;;;;;;6.17;1.10;;;;;;;;;;5072856;28;20028;-78
2021/04/05 11:12:02;;;;;;;9.30;1.50;;;;;;;;;;5071501;28;20020;-79
2021/04/05 11:14:28;;;;;;;9.77;1.30;;;;;;;;;;5072772;28;20499;-79
2021/04/05 11:16:55;;;;;;;13.10;2.03;;;;;;;;;;5071762;28;20024;-79
2021/04/05 11:19:28;;;;;;;13.30;1.57;;;;;;;;;;5071725;28;20467;-78
2021/04/05 11:21:53;;;;;;;11.88;1.70;;;;;;;;;;5071399;28;20040;-79
2021/04/05 11:24:27;;;;;;;10.73;1.70;;;;;;;;;;5071413;28;20379;-79
2021/04/05 11:26:54;;;;;;;10.50;1.43;;;;;;;;;;5072725;28;20021;-79
2021/04/05 11:29:21;;;;;;;10.73;2.07;;;;;;;;;;5072683;28;20103;-79
2021/04/05 11:31:48;;;;;;;17.17;1.80;;;;;;;;;;5072225;28;20028;-79
2021/04/05 11:34:14;;;;;;;14.50;2.80;;;;;;;;;;5071496;28;20020;-79
2021/04/05 11:36:45;;;;;;;11.83;1.83;;;;;;;;;;5071245;28;20027;-79
2021/04/05 11:39:20;;;;;;;13.30;1.90;;;;;;;;;;5070252;28;20021;-79
2021/04/05 11:41:50;;;;;;;12.57;1.90;;;;;;;;;;5072732;28;20016;-78
2021/04/05 11:44:18;;;;;;;11.63;2.63;;;;;;;;;;5072391;28;20525;-78
2021/04/05 11:46:46;;;;;;;10.67;1.60;;;;;;;;;;5072488;28;20024;-79
2021/04/05 11:49:12;;;;;;;15.30;2.03;;;;;;;;;;5070682;28;20054;-78
2021/04/05 11:51:40;;;;;;;9.17;1.40;;;;;;;;;;5071265;28;20028;-79
2021/04/05 11:54:07;;;;;;;11.23;1.90;;;;;;;;;;5071181;28;20055;-79
2021/04/05 11:56:33;;;;;;;7.77;1.27;;;;;;;;;;5070488;28;20027;-79
2021/04/05 11:59:04;;;;;;;8.37;1.63;;;;;;;;;;5070363;28;20020;-79
2021/04/05 12:01:32;;;;;;;6.30;1.33;;;;;;;;;;5061059;28;20498;-79
2021/04/05 12:04:03;;;;;;;8.17;1.77;;;;;;;;;;5096867;28;20371;-79
2021/04/05 12:06:32;;;;;;;8.07;1.20;;;;;;;;;;5059697;28;20019;-79
2021/04/05 12:09:00;;;;;;;10.60;1.30;;;;;;;;;;5055280;28;20553;-79
2021/04/05 12:11:27;;;;;;;12.67;1.30;;;;;;;;;;5065030;28;20100;-79
2021/04/05 12:13:59;;;;;;;4.03;0.73;;;;;;;;;;5064437;28;20480;-79
2021/04/05 12:16:25;;;;;;;8.30;1.47;;;;;;;;;;5062708;28;20036;-79
2021/04/05 12:18:51;;;;;;;13.90;1.47;;;;;;;;;;5059036;28;20017;-79
2021/04/05 12:21:17;;;;;;;10.47;1.40;;;;;;;;;;5063806;28;20031;-79
2021/04/05 12:23:42;;;;;;;8.77;1.80;;;;;;;;;;5063202;28;20009;-79
2021/04/05 12:26:08;;;;;;;18.30;1.90;;;;;;;;;;5063416;28;20028;-79
2021/04/05 12:28:38;;;;;;;9.73;1.03;;;;;;;;;;5063516;28;20107;-79
2021/04/05 12:31:04;;;;;;;6.80;1.10;;;;;;;;;;5062705;28;20619;-79
2021/04/05 12:33:32;;;;;;;9.97;1.37;;;;;;;;;;5060578;28;20023;-79
2021/04/05 12:35:58;;;;;;;6.77;1.00;;;;;;;;;;5066854;28;20123;-79
2021/04/05 12:38:28;;;;;;;5.33;0.90;;;;;;;;;;5059320;28;20425;-79
2021/04/05 12:40:53;;;;;;;8.60;1.13;;;;;;;;;;5065110;28;20012;-79
2021/04/05 12:43:22;;;;;;;7.70;1.27;;;;;;;;;;5056156;28;20358;-79
2021/04/05 12:45:51;;;;;;;17.13;1.23;;;;;;;;;;5059448;28;20039;-80
2021/04/05 12:48:20;;;;;;;11.37;1.43;;;;;;;;;;5054242;28;20025;-78
2021/04/05 12:50:46;;;;;;;8.40;0.87;;;;;;;;;;5063618;28;20027;-79
2021/04/05 12:53:11;;;;;;;15.20;1.47;;;;;;;;;;5059889;28;20021;-79
2021/04/05 12:55:39;;;;;;;7.40;1.07;;;;;;;;;;5055816;28;20095;-79
2021/04/05 12:58:04;;;;;;;8.23;1.00;;;;;;;;;;5065962;28;20035;-78
2021/04/05 13:00:30;;;;;;;8.93;1.40;;;;;;;;;;5056814;28;20391;-78
2021/04/05 13:02:58;;;;;;;12.37;1.43;;;;;;;;;;5060650;28;20021;-78
2021/04/05 13:05:29;;;;;;;8.90;1.17;;;;;;;;;;5071655;28;20036;-78
2021/04/05 13:07:58;;;;;;;12.97;1.20;;;;;;;;;;5065305;28;20035;-78
2021/04/05 13:10:25;;;;;;;12.73;0.97;;;;;;;;;;5062170;28;20283;-78
2021/04/05 13:12:53;;;;;;;7.37;1.23;;;;;;;;;;5062465;28;20025;-78
2021/04/05 13:15:30;;;;;;;8.93;1.27;;;;;;;;;;5067247;28;20025;-78
2021/04/05 13:17:58;;;;;;;10.13;1.00;;;;;;;;;;5068319;28;20111;-78
2021/04/05 13:20:34;;;;;;;9.93;1.30;;;;;;;;;;5069379;28;20088;-78
2021/04/05 13:23:03;;;;;;;6.10;0.60;;;;;;;;;;5064776;28;20426;-78
2021/04/05 13:25:30;;;;;;;6.67;1.00;;;;;;;;;;5063395;28;20017;-78
2021/04/05 13:27:57;;;;;;;11.13;1.50;;;;;;;;;;5065019;28;20039;-78
2021/04/05 13:30:28;;;;;;;5.17;1.23;;;;;;;;;;5065748;28;20028;-78
2021/04/05 13:32:53;;;;;;;8.13;1.33;;;;;;;;;;5067846;28;20109;-78
2021/04/05 13:35:20;;;;;;;8.90;1.50;;;;;;;;;;5072400;28;20136;-78
2021/04/05 13:37:47;;;;;;;9.17;1.40;;;;;;;;;;5070798;28;20036;-78
2021/04/05 13:40:13;;;;;;;9.90;1.03;;;;;;;;;;5071992;28;20020;-78
2021/04/05 13:42:39;;;;;;;11.83;1.00;;;;;;;;;;5069250;28;20117;-78
2021/04/05 13:45:08;;;;;;;5.27;0.80;;;;;;;;;;5064903;28;20033;-78
2021/04/05 13:47:35;;;;;;;13.63;1.50;;;;;;;;;;5074516;28;20028;-78
2021/04/05 13:50:03;;;;;;;11.00;1.17;;;;;;;;;;5072968;28;20029;-78
2021/04/05 13:52:29;;;;;;;3.57;0.77;;;;;;;;;;5073263;28;20025;-78
2021/04/05 13:54:58;;;;;;;10.23;0.80;;;;;;;;;;5074658;28;20541;-78
2021/04/05 13:57:29;;;;;;;10.17;1.60;;;;;;;;;;5072447;28;20025;-78
2021/04/05 13:59:58;;;;;;;10.37;0.97;;;;;;;;;;5072052;28;20013;-78
2021/04/05 14:02:24;;;;;;;6.13;0.80;;;;;;;;;;5073729;28;20021;-78
2021/04/05 14:04:49;;;;;;;5.97;1.10;;;;;;;;;;5072635;28;20078;-78
2021/04/05 14:07:14;;;;;;;9.77;0.80;;;;;;;;;;5073070;28;20463;-78
2021/04/05 14:09:41;;;;;;;9.90;0.77;;;;;;;;;;5073854;28;20032;-78
2021/04/05 14:12:07;;;;;;;5.03;0.80;;;;;;;;;;5071821;28;20071;-78
2021/04/05 14:14:33;;;;;;;12.60;1.20;;;;;;;;;;5071759;28;20078;-78
2021/04/05 14:17:03;;;;;;;8.93;0.90;;;;;;;;;;5072210;28;20017;-78
2021/04/05 14:19:29;;;;;;;8.97;0.83;;;;;;;;;;5071894;28;20017;-78
2021/04/05 14:22:13;;;;;;;8.30;0.93;;;;;;;;;;5072071;28;20012;-78
2021/04/05 14:24:41;;;;;;;13.03;1.47;;;;;;;;;;5069720;28;20024;-78
2021/04/05 14:27:08;;;;;;;7.63;0.80;;;;;;;;;;5067763;28;20086;-79
2021/04/05 14:29:52;;;;;;;14.73;0.97;;;;;;;;;;5070604;28;20483;-78
2021/04/05 14:32:20;;;;;;;5.73;0.80;;;;;;;;;;5066025;28;20134;-78
2021/04/05 14:34:48;;;;;;;3.00;0.70;;;;;;;;;;5065463;28;20123;-79
2021/04/05 14:37:15;;;;;;;6.10;1.00;;;;;;;;;;5072898;28;20017;-78
2021/04/05 14:39:42;;;;;;;8.43;1.77;;;;;;;;;;5071287;28;20563;-78